Terminal Aerodrome Forecast
Issued by NWS Wilmington, OH

Current Version | Previous Version | Graphics & Text | Print | Product List | Glossary On
Versions: 1 2 3 4 5 6 7 8 9 10 11 12 13 14 15 16 17
000
FTUS41 KILN 212008 AAA
TAFDAY
TAF AMD
KDAY 212008Z 2120/2218 22013KT P6SM VCTS SCT015CB OVC022
      TEMPO 2120/2121 3SM -TSRA BR OVC015CB
     FM212100 24011KT P6SM VCSH BKN015
     FM212200 25011KT P6SM FEW015 SCT026
     FM220100 27008KT P6SM SCT090
     FM221300 27010KT P6SM FEW035 SCT250=

USA.gov is the U.S. government's official web portal to all federal, state and local government web resources and services.